Time;durP1;ratioP1;P1;durP2;ratioP2;P2;SDS_P1;SDS_P2;PMS_P1;PMS_P2;Temp;Humidity;BMP_temperature;BMP_pressure;BME280_temperature;BME280_humidity;BME280_pressure;Samples;Min_cycle;Max_cycle;Signal;HPM_P1;HPM_P2
2022/07/24 00:00:22;;;;;;;4.10;3.80;;;;;24.90;100871.00;;;;2086479;28;20212;-54
2022/07/24 00:01:22;;;;;;;5.27;3.47;;;;;24.90;100872.00;;;;2086460;28;20228;-53
2022/07/24 00:02:22;;;;;;;3.63;3.30;;;;;24.90;100874.00;;;;2086614;28;20734;-53
2022/07/24 00:03:23;;;;;;;3.50;3.20;;;;;24.90;100884.00;;;;2080783;28;20689;-53
2022/07/24 00:04:23;;;;;;;3.50;3.23;;;;;24.90;100877.00;;;;2081716;28;20577;-53
2022/07/24 00:05:23;;;;;;;3.77;3.47;;;;;24.90;100869.00;;;;2086227;28;20217;-58
2022/07/24 00:06:24;;;;;;;3.77;3.47;;;;;24.90;100873.00;;;;2086688;28;20258;-57
2022/07/24 00:07:25;;;;;;;4.03;3.70;;;;;24.90;100872.00;;;;2085750;28;20220;-55
2022/07/24 00:08:25;;;;;;;3.40;3.10;;;;;24.90;100861.00;;;;2086426;28;20887;-55
2022/07/24 00:09:26;;;;;;;3.70;3.40;;;;;24.90;100864.00;;;;2086542;28;20212;-54
2022/07/24 00:10:26;;;;;;;3.60;3.30;;;;;24.90;100874.00;;;;2078356;28;20280;-53
2022/07/24 00:11:26;;;;;;;3.57;3.27;;;;;24.90;100862.00;;;;2077838;28;20221;-53
2022/07/24 00:12:27;;;;;;;3.70;3.40;;;;;24.90;100871.00;;;;2084103;28;20266;-54
2022/07/24 00:13:27;;;;;;;3.43;3.20;;;;;24.90;100871.00;;;;2086630;28;20220;-53
2022/07/24 00:14:27;;;;;;;3.30;3.10;;;;;24.90;100868.00;;;;2086062;28;20228;-54
2022/07/24 00:15:28;;;;;;;3.63;3.33;;;;;24.90;100865.00;;;;2086416;28;20248;-53
2022/07/24 00:16:28;;;;;;;3.53;3.23;;;;;24.90;100865.00;;;;2086547;28;20221;-54
2022/07/24 00:17:28;;;;;;;4.43;4.07;;;;;24.90;100861.00;;;;2085845;28;20217;-54
2022/07/24 00:18:29;;;;;;;3.70;3.40;;;;;24.40;100877.00;;;;2086179;28;20219;-54
2022/07/24 00:19:29;;;;;;;3.67;3.43;;;;;24.90;100858.00;;;;2086881;28;20225;-53
2022/07/24 00:20:29;;;;;;;3.67;3.37;;;;;24.90;100864.00;;;;2086894;28;20225;-53
2022/07/24 00:21:30;;;;;;;3.50;3.20;;;;;24.90;100865.00;;;;2086971;28;20233;-54
2022/07/24 00:22:30;;;;;;;3.33;3.13;;;;;24.90;100869.00;;;;2084479;28;20212;-54
2022/07/24 00:23:31;;;;;;;3.40;3.10;;;;;24.90;100857.00;;;;2086518;28;20223;-53
2022/07/24 00:24:31;;;;;;;3.53;3.27;;;;;24.90;100861.00;;;;2086409;28;20209;-53
2022/07/24 00:25:32;;;;;;;4.00;3.70;;;;;24.90;100857.00;;;;2086507;28;20220;-54
2022/07/24 00:26:32;;;;;;;3.70;3.40;;;;;24.90;100865.00;;;;2086430;28;20213;-53
2022/07/24 00:27:32;;;;;;;3.60;3.30;;;;;24.90;100862.00;;;;2085553;28;20369;-53
2022/07/24 00:28:33;;;;;;;3.60;3.30;;;;;24.90;100861.00;;;;2086688;28;20225;-54
2022/07/24 00:29:33;;;;;;;3.77;3.47;;;;;24.90;100862.00;;;;2086610;28;20240;-54
2022/07/24 00:30:33;;;;;;;3.47;3.17;;;;;24.90;100865.00;;;;2086539;28;20231;-53
2022/07/24 00:31:34;;;;;;;3.43;3.13;;;;;24.90;100865.00;;;;2086470;28;20212;-53
2022/07/24 00:32:34;;;;;;;3.53;3.23;;;;;24.90;100857.00;;;;2086169;28;20219;-54
2022/07/24 00:33:34;;;;;;;3.17;2.87;;;;;24.90;100862.00;;;;2086608;28;20255;-53
2022/07/24 00:34:35;;;;;;;3.50;3.20;;;;;24.90;100859.00;;;;2086722;28;20254;-53
2022/07/24 00:35:35;;;;;;;3.70;3.40;;;;;24.90;100861.00;;;;2086631;28;20232;-53
2022/07/24 00:36:35;;;;;;;3.97;3.43;;;;;24.90;100850.00;;;;2086755;28;20215;-54
2022/07/24 00:37:36;;;;;;;5.03;3.60;;;;;24.90;100855.00;;;;2085609;28;20205;-53
2022/07/24 00:38:36;;;;;;;3.53;3.23;;;;;24.90;100848.00;;;;2086695;28;20705;-54
2022/07/24 00:39:36;;;;;;;3.67;3.37;;;;;24.90;100853.00;;;;2086366;28;20763;-53
2022/07/24 00:40:37;;;;;;;3.33;3.13;;;;;24.90;100846.00;;;;2086043;28;20681;-54
2022/07/24 00:41:37;;;;;;;3.90;3.60;;;;;24.90;100846.00;;;;2081195;28;21022;-53
2022/07/24 00:42:37;;;;;;;4.17;3.87;;;;;24.90;100848.00;;;;2081251;28;20216;-53
2022/07/24 00:44:04;;;;;;;3.80;3.50;;;;;24.90;100847.00;;;;2085912;28;20213;-54
2022/07/24 00:45:04;;;;;;;3.50;3.20;;;;;24.90;100846.00;;;;2084884;28;20712;-54
2022/07/24 00:46:04;;;;;;;3.70;3.40;;;;;24.90;100847.00;;;;2086598;28;20213;-55
2022/07/24 00:47:05;;;;;;;3.47;3.17;;;;;24.90;100853.00;;;;2086645;28;20689;-55
2022/07/24 00:48:05;;;;;;;3.80;3.50;;;;;24.90;100846.00;;;;2085686;28;20721;-54
2022/07/24 00:49:07;;;;;;;3.00;2.80;;;;;24.90;100843.00;;;;2086049;28;20217;-54
2022/07/24 00:50:07;;;;;;;3.80;3.47;;;;;24.90;100839.00;;;;2086587;28;20221;-54
2022/07/24 00:51:08;;;;;;;3.40;3.10;;;;;24.90;100847.00;;;;2086552;28;20639;-54
2022/07/24 00:52:08;;;;;;;3.17;2.97;;;;;24.90;100839.00;;;;2086798;28;20231;-53
2022/07/24 00:53:08;;;;;;;5.53;3.50;;;;;24.90;100850.00;;;;2085893;28;20303;-54
2022/07/24 00:54:09;;;;;;;3.50;3.20;;;;;24.90;100848.00;;;;2085855;28;20228;-54
2022/07/24 00:55:10;;;;;;;3.50;3.20;;;;;24.90;100846.00;;;;2085829;28;20244;-54
2022/07/24 00:56:12;;;;;;;3.40;3.10;;;;;24.90;100830.00;;;;2085947;28;20454;-54
2022/07/24 00:57:12;;;;;;;3.80;3.50;;;;;24.90;100839.00;;;;2086016;28;20705;-53
2022/07/24 00:58:12;;;;;;;4.03;3.73;;;;;24.90;100852.00;;;;2085602;28;20205;-53
2022/07/24 00:59:13;;;;;;;3.27;2.97;;;;;24.90;100839.00;;;;2078855;28;20563;-54
2022/07/24 01:00:13;;;;;;;3.23;3.00;;;;;24.90;100850.00;;;;2078939;28;20590;-54
2022/07/24 01:01:14;;;;;;;3.70;3.40;;;;;24.90;100847.00;;;;2088033;28;20213;-54
2022/07/24 01:02:14;;;;;;;3.67;3.37;;;;;24.90;100853.00;;;;2087249;28;20729;-53
2022/07/24 01:03:15;;;;;;;3.20;2.97;;;;;24.90;100854.00;;;;2081774;28;20686;-53
2022/07/24 01:04:15;;;;;;;3.40;3.20;;;;;24.90;100858.00;;;;2077040;28;20210;-53
2022/07/24 01:05:16;;;;;;;3.60;3.30;;;;;24.90;100855.00;;;;2078619;28;20245;-53
2022/07/24 01:06:16;;;;;;;3.40;3.10;;;;;24.90;100860.00;;;;2079168;28;20209;-53
2022/07/24 01:07:16;;;;;;;3.50;3.30;;;;;24.90;100856.00;;;;2079084;28;20209;-53
2022/07/24 01:08:17;;;;;;;3.53;3.23;;;;;24.90;100854.00;;;;2079245;28;20320;-53
2022/07/24 01:09:18;;;;;;;3.97;3.23;;;;;24.90;100819.00;;;;2079156;28;20213;-53
2022/07/24 01:10:18;;;;;;;3.10;2.90;;;;;24.90;100862.00;;;;2078580;28;20206;-53
2022/07/24 01:11:19;;;;;;;3.10;2.90;;;;;24.90;100853.00;;;;2078969;28;20456;-54
2022/07/24 01:12:19;;;;;;;3.30;3.00;;;;;24.90;100857.00;;;;2079113;28;20608;-53
2022/07/24 01:13:19;;;;;;;3.10;2.90;;;;;24.90;100850.00;;;;2079172;28;20217;-53
2022/07/24 01:14:20;;;;;;;3.27;3.00;;;;;24.90;100848.00;;;;2078672;28;20220;-53
2022/07/24 01:15:20;;;;;;;3.23;3.03;;;;;24.90;100857.00;;;;2079007;28;20217;-53
2022/07/24 01:16:20;;;;;;;3.53;3.23;;;;;24.90;100855.00;;;;2079196;28;20229;-53
2022/07/24 01:17:21;;;;;;;3.40;3.20;;;;;24.90;100853.00;;;;2079034;28;20263;-53
2022/07/24 01:18:21;;;;;;;3.10;2.90;;;;;24.90;100857.00;;;;2079287;28;20215;-53
2022/07/24 01:19:21;;;;;;;3.30;3.10;;;;;24.90;100857.00;;;;2079750;28;20217;-53
2022/07/24 01:20:22;;;;;;;3.10;2.83;;;;;24.90;100853.00;;;;2079251;28;20229;-53
2022/07/24 01:21:22;;;;;;;3.60;3.30;;;;;24.90;100857.00;;;;2079898;28;20213;-53
2022/07/24 01:22:22;;;;;;;3.53;3.23;;;;;24.90;100857.00;;;;2079627;28;20205;-53
2022/07/24 01:23:23;;;;;;;3.43;3.23;;;;;24.90;100857.00;;;;2079566;28;20241;-53
2022/07/24 01:24:23;;;;;;;3.50;3.23;;;;;24.90;100851.00;;;;2079509;28;20217;-53
2022/07/24 01:25:23;;;;;;;3.83;3.53;;;;;24.90;100851.00;;;;2079575;28;20217;-54
2022/07/24 01:26:24;;;;;;;3.30;3.00;;;;;24.90;100854.00;;;;2079614;28;20260;-53
2022/07/24 01:27:24;;;;;;;3.37;3.07;;;;;24.80;100853.00;;;;2079618;28;22380;-53
2022/07/24 01:28:25;;;;;;;3.83;3.53;;;;;24.90;100852.00;;;;2087447;28;20221;-53
2022/07/24 01:29:25;;;;;;;3.40;3.10;;;;;24.90;100847.00;;;;2087774;28;20608;-53
2022/07/24 01:30:25;;;;;;;2.97;2.77;;;;;24.80;100852.00;;;;2080814;28;20581;-53
2022/07/24 01:31:26;;;;;;;3.50;3.20;;;;;24.90;100849.00;;;;2078974;28;20682;-54
2022/07/24 01:32:26;;;;;;;3.67;3.37;;;;;24.90;100853.00;;;;2079087;28;20237;-53
2022/07/24 01:33:26;;;;;;;3.90;3.60;;;;;24.80;100850.00;;;;2079711;28;20224;-54
2022/07/24 01:34:27;;;;;;;3.57;3.37;;;;;24.90;100839.00;;;;2079318;28;20210;-53
2022/07/24 01:35:27;;;;;;;4.30;3.40;;;;;24.90;100846.00;;;;2079413;28;20217;-53
2022/07/24 01:36:27;;;;;;;3.40;3.20;;;;;24.80;100844.00;;;;2079514;28;20294;-53
2022/07/24 01:37:28;;;;;;;3.30;3.10;;;;;24.80;100839.00;;;;2078681;28;20216;-53
2022/07/24 01:38:28;;;;;;;3.70;3.40;;;;;24.90;100866.00;;;;2079328;28;20217;-54
2022/07/24 01:39:28;;;;;;;3.33;3.13;;;;;24.80;100855.00;;;;2079401;28;20217;-53
2022/07/24 01:40:29;;;;;;;3.40;3.20;;;;;24.80;100851.00;;;;2079724;28;21057;-53
2022/07/24 01:41:29;;;;;;;3.00;2.80;;;;;24.90;100844.00;;;;2079503;28;20689;-53
2022/07/24 01:42:29;;;;;;;3.47;3.20;;;;;24.80;100844.00;;;;2079559;28;20217;-53
2022/07/24 01:43:30;;;;;;;3.13;2.77;;;;;24.80;100837.00;;;;2078987;28;20221;-54
2022/07/24 01:44:30;;;;;;;3.40;3.10;;;;;24.80;100834.00;;;;2078837;28;20219;-53
2022/07/24 01:45:31;;;;;;;3.27;3.07;;;;;24.80;100850.00;;;;2079408;28;20296;-53
2022/07/24 01:46:31;;;;;;;3.53;3.30;;;;;24.80;100825.00;;;;2079384;28;20209;-53
2022/07/24 01:47:31;;;;;;;3.73;3.43;;;;;24.80;100844.00;;;;2077805;28;20241;-53
2022/07/24 01:48:32;;;;;;;3.23;3.03;;;;;24.80;100843.00;;;;2078424;28;20268;-54
2022/07/24 01:49:32;;;;;;;3.83;3.53;;;;;24.80;100838.00;;;;2078881;28;20209;-53
2022/07/24 01:50:32;;;;;;;3.30;3.07;;;;;24.90;100844.00;;;;2078692;28;20706;-53
2022/07/24 01:51:33;;;;;;;3.57;3.27;;;;;24.80;100845.00;;;;2079483;28;20697;-53
2022/07/24 01:52:33;;;;;;;3.50;3.20;;;;;24.80;100839.00;;;;2083413;28;20266;-53
2022/07/24 01:53:33;;;;;;;3.37;3.17;;;;;24.80;100837.00;;;;2087564;28;20217;-53
2022/07/24 01:54:34;;;;;;;3.63;3.33;;;;;24.80;100833.00;;;;2086618;28;20213;-53
2022/07/24 01:55:34;;;;;;;3.67;3.37;;;;;24.80;100836.00;;;;2087499;28;20252;-53
2022/07/24 01:56:34;;;;;;;3.40;3.20;;;;;24.80;100828.00;;;;2087556;28;20217;-55
2022/07/24 01:57:35;;;;;;;3.30;3.00;;;;;24.80;100634.00;;;;2085717;28;20250;-53
2022/07/24 01:58:35;;;;;;;3.20;3.00;;;;;24.80;100839.00;;;;2078801;28;20272;-53
2022/07/24 01:59:36;;;;;;;3.50;3.20;;;;;24.80;100832.00;;;;2079357;28;20703;-53
2022/07/24 02:00:36;;;;;;;3.50;3.30;;;;;24.80;100829.00;;;;2078801;28;20275;-53
2022/07/24 02:01:36;;;;;;;4.07;3.47;;;;;24.80;100825.00;;;;2078586;28;20213;-53
2022/07/24 02:02:37;;;;;;;3.40;3.10;;;;;24.80;100829.00;;;;2079330;28;20225;-53
2022/07/24 02:03:38;;;;;;;3.57;3.07;;;;;24.80;100829.00;;;;2079398;28;20214;-53
2022/07/24 02:04:39;;;;;;;3.30;3.10;;;;;24.80;100832.00;;;;2079290;28;20241;-53
2022/07/24 02:05:39;;;;;;;3.20;3.00;;;;;24.80;100833.00;;;;2079275;28;20283;-55
2022/07/24 02:06:39;;;;;;;3.20;3.00;;;;;24.80;100835.00;;;;2079262;28;20220;-53
2022/07/24 02:07:42;;;;;;;3.40;3.10;;;;;24.80;100837.00;;;;2078173;28;20217;-53
2022/07/24 02:08:43;;;;;;;3.08;2.88;;;;;24.80;100826.00;;;;2078200;28;20800;-53
2022/07/24 02:09:43;;;;;;;3.67;3.37;;;;;24.80;100830.00;;;;2078727;28;20210;-53
2022/07/24 02:10:43;;;;;;;3.70;3.40;;;;;24.80;100827.00;;;;2079034;28;20701;-54
2022/07/24 02:11:44;;;;;;;3.67;3.37;;;;;24.80;100827.00;;;;2079174;28;20209;-54
2022/07/24 02:12:44;;;;;;;3.13;2.90;;;;;24.80;100827.00;;;;2079221;28;20213;-54
2022/07/24 02:13:45;;;;;;;3.40;3.10;;;;;24.80;100831.00;;;;2079310;28;20336;-53
2022/07/24 02:14:45;;;;;;;3.73;3.47;;;;;24.80;100822.00;;;;2080664;28;20225;-54
2022/07/24 02:15:45;;;;;;;3.47;3.27;;;;;24.80;100833.00;;;;2087297;28;20259;-54
2022/07/24 02:16:46;;;;;;;3.67;3.37;;;;;24.80;100824.00;;;;2087331;28;20217;-54
2022/07/24 02:17:47;;;;;;;3.47;3.17;;;;;24.80;100830.00;;;;2086554;28;20223;-53
2022/07/24 02:18:48;;;;;;;3.90;3.63;;;;;24.80;100826.00;;;;2087426;28;20648;-55
2022/07/24 02:19:48;;;;;;;3.50;3.20;;;;;24.80;100828.00;;;;2087487;28;20296;-54
2022/07/24 02:20:48;;;;;;;3.60;3.40;;;;;24.80;100829.00;;;;2087340;28;20212;-54
2022/07/24 02:21:49;;;;;;;3.00;2.80;;;;;24.80;100826.00;;;;2087302;28;20217;-53
2022/07/24 02:22:49;;;;;;;3.47;3.17;;;;;24.80;100822.00;;;;2087306;28;20308;-54
2022/07/24 02:23:49;;;;;;;4.03;3.73;;;;;24.80;100826.00;;;;2087396;28;20228;-54
2022/07/24 02:24:50;;;;;;;3.10;2.90;;;;;24.80;100825.00;;;;2087225;28;20286;-53
2022/07/24 02:25:50;;;;;;;3.40;3.20;;;;;24.80;100826.00;;;;2087466;28;20683;-54
2022/07/24 02:26:51;;;;;;;3.07;2.87;;;;;24.80;100818.00;;;;2086967;28;20585;-53
2022/07/24 02:27:51;;;;;;;3.90;3.60;;;;;24.80;100825.00;;;;2086536;28;20316;-54
2022/07/24 02:28:51;;;;;;;3.40;3.20;;;;;24.80;100815.00;;;;2087208;28;20520;-53
2022/07/24 02:29:52;;;;;;;3.23;3.03;;;;;24.80;100812.00;;;;2087462;28;20251;-53
2022/07/24 02:30:52;;;;;;;3.37;3.17;;;;;24.80;100819.00;;;;2087327;28;20213;-54
2022/07/24 02:31:52;;;;;;;4.53;4.17;;;;;24.80;100811.00;;;;2087269;28;20286;-54
2022/07/24 02:32:53;;;;;;;3.70;3.40;;;;;24.80;100825.00;;;;2087138;28;20584;-53
2022/07/24 02:33:53;;;;;;;3.30;3.10;;;;;24.80;100813.00;;;;2087396;28;20221;-53
2022/07/24 02:34:53;;;;;;;3.53;3.23;;;;;24.80;100819.00;;;;2086941;28;20240;-53
2022/07/24 02:35:53;;;;;;;3.97;3.67;;;;;24.80;100819.00;;;;2087438;28;20521;-53
2022/07/24 02:36:54;;;;;;;3.30;3.10;;;;;24.80;100819.00;;;;2087201;28;20216;-53
2022/07/24 02:37:54;;;;;;;3.00;2.80;;;;;24.80;100629.00;;;;2086430;28;20325;-53
2022/07/24 02:38:54;;;;;;;3.27;3.07;;;;;24.80;100811.00;;;;2086193;28;20217;-54
2022/07/24 02:39:55;;;;;;;3.00;2.80;;;;;24.80;100818.00;;;;2086651;28;20592;-53
2022/07/24 02:40:55;;;;;;;3.57;3.37;;;;;24.80;100813.00;;;;2082555;28;20227;-53
2022/07/24 02:41:56;;;;;;;3.80;3.30;;;;;24.80;100810.00;;;;2094766;28;20362;-54
2022/07/24 02:42:56;;;;;;;3.07;2.87;;;;;24.80;100807.00;;;;2089767;28;20299;-54
2022/07/24 02:43:57;;;;;;;3.70;3.40;;;;;24.80;100809.00;;;;2087086;28;20677;-54
2022/07/24 02:44:57;;;;;;;3.40;3.20;;;;;24.80;100812.00;;;;2087273;28;20236;-54
2022/07/24 02:45:57;;;;;;;3.27;3.07;;;;;24.80;100804.00;;;;2087359;28;20212;-53
2022/07/24 02:46:58;;;;;;;3.50;3.27;;;;;24.80;100805.00;;;;2087114;28;20278;-54
2022/07/24 02:47:58;;;;;;;3.00;2.80;;;;;24.80;100802.00;;;;2086362;28;20697;-54
2022/07/24 02:48:58;;;;;;;3.10;2.90;;;;;24.80;100804.00;;;;2087150;28;20271;-53
2022/07/24 02:49:59;;;;;;;3.10;2.90;;;;;24.80;100807.00;;;;2087230;28;20774;-53
2022/07/24 02:50:59;;;;;;;3.80;3.50;;;;;24.80;100800.00;;;;2087157;28;20228;-53
2022/07/24 02:51:59;;;;;;;2.93;2.73;;;;;24.80;100800.00;;;;2086789;28;20228;-53
2022/07/24 02:53:00;;;;;;;3.80;3.50;;;;;24.80;100801.00;;;;2087157;28;20251;-53
2022/07/24 02:54:00;;;;;;;3.30;3.10;;;;;24.80;100804.00;;;;2087328;28;20223;-54
2022/07/24 02:55:00;;;;;;;3.37;3.17;;;;;24.80;100803.00;;;;2086785;28;20224;-53
2022/07/24 02:56:01;;;;;;;3.60;3.30;;;;;24.80;100810.00;;;;2087022;28;20244;-53
2022/07/24 02:57:01;;;;;;;3.93;3.60;;;;;24.80;100805.00;;;;2087117;28;20223;-54
2022/07/24 02:58:01;;;;;;;3.17;2.97;;;;;24.80;100805.00;;;;2084023;28;20224;-53
2022/07/24 02:59:02;;;;;;;3.70;3.40;;;;;24.80;100809.00;;;;2087114;28;20205;-53
2022/07/24 03:00:07;;;;;;;3.53;3.23;;;;;24.80;100802.00;;;;2087133;28;20628;-53
2022/07/24 03:01:07;;;;;;;3.22;3.03;;;;;24.80;100804.00;;;;2085961;28;20223;-54
2022/07/24 03:02:07;;;;;;;3.73;3.43;;;;;24.80;100802.00;;;;2079061;28;20748;-54
2022/07/24 03:03:08;;;;;;;3.40;3.10;;;;;24.80;100799.00;;;;2078851;28;20820;-55
2022/07/24 03:04:08;;;;;;;3.20;3.00;;;;;24.80;100802.00;;;;2082030;28;20713;-54
2022/07/24 03:05:09;;;;;;;3.83;3.53;;;;;24.80;100843.00;;;;2086159;28;20724;-53
2022/07/24 03:06:09;;;;;;;3.63;3.33;;;;;24.80;100801.00;;;;2086357;28;20217;-53
2022/07/24 03:07:09;;;;;;;3.53;3.23;;;;;24.80;100797.00;;;;2084458;28;20217;-54
2022/07/24 03:08:10;;;;;;;3.37;3.10;;;;;24.80;100789.00;;;;2078176;28;20259;-53
2022/07/24 03:09:10;;;;;;;3.00;2.80;;;;;24.80;100789.00;;;;2078565;28;20249;-54
2022/07/24 03:10:11;;;;;;;3.17;2.97;;;;;24.80;100796.00;;;;2078817;28;20267;-54
2022/07/24 03:11:11;;;;;;;3.47;3.20;;;;;24.80;100797.00;;;;2078785;28;20221;-53
2022/07/24 03:12:11;;;;;;;3.10;2.90;;;;;24.80;100799.00;;;;2078944;28;20459;-54
2022/07/24 03:13:12;;;;;;;3.30;3.10;;;;;24.80;100798.00;;;;2078411;28;20300;-53
2022/07/24 03:14:12;;;;;;;3.00;2.80;;;;;24.80;100802.00;;;;2078799;28;20209;-53
2022/07/24 03:15:13;;;;;;;3.00;2.80;;;;;24.80;100801.00;;;;2078729;28;20236;-53
2022/07/24 03:16:13;;;;;;;3.23;3.00;;;;;24.80;100798.00;;;;2078944;28;20271;-53
2022/07/24 03:17:13;;;;;;;3.10;2.90;;;;;24.80;100794.00;;;;2077921;28;20554;-53
2022/07/24 03:18:14;;;;;;;3.40;3.10;;;;;24.80;100797.00;;;;2078362;28;20214;-54
2022/07/24 03:19:14;;;;;;;3.40;3.10;;;;;24.80;100798.00;;;;2078503;28;20213;-53
2022/07/24 03:20:15;;;;;;;3.27;3.07;;;;;24.80;100799.00;;;;2078388;28;20387;-53
2022/07/24 03:21:15;;;;;;;3.70;3.40;;;;;24.80;100798.00;;;;2078064;28;20233;-53
2022/07/24 03:22:15;;;;;;;3.47;3.17;;;;;24.80;100799.00;;;;2078589;28;20217;-53
2022/07/24 03:23:16;;;;;;;3.13;2.93;;;;;24.80;100797.00;;;;2077846;28;20209;-54
2022/07/24 03:24:16;;;;;;;3.13;2.93;;;;;24.80;100795.00;;;;2078723;28;20213;-53
2022/07/24 03:25:17;;;;;;;3.70;3.40;;;;;24.80;100788.00;;;;2085966;28;20228;-53
2022/07/24 03:26:17;;;;;;;2.93;2.73;;;;;24.80;100786.00;;;;2086844;28;20205;-54
2022/07/24 03:27:17;;;;;;;3.37;3.17;;;;;24.80;100794.00;;;;2086324;28;20673;-53
2022/07/24 03:28:18;;;;;;;3.50;3.20;;;;;24.80;100795.00;;;;2084040;28;20796;-53
2022/07/24 03:29:18;;;;;;;3.40;3.13;;;;;24.80;100790.00;;;;2078527;28;20313;-54
2022/07/24 03:30:19;;;;;;;3.37;3.17;;;;;24.80;100783.00;;;;2078785;28;20221;-54
2022/07/24 03:31:19;;;;;;;3.23;3.03;;;;;24.80;100788.00;;;;2078519;28;20304;-54
2022/07/24 03:32:19;;;;;;;3.10;2.90;;;;;24.80;100797.00;;;;2078749;28;20221;-53
2022/07/24 03:33:19;;;;;;;3.50;3.20;;;;;24.80;100791.00;;;;2078763;28;20227;-54
2022/07/24 03:34:20;;;;;;;3.27;3.07;;;;;24.80;100790.00;;;;2078711;28;20236;-53
2022/07/24 03:35:20;;;;;;;3.27;3.07;;;;;24.80;100792.00;;;;2078309;28;20236;-54
2022/07/24 03:36:21;;;;;;;4.00;3.70;;;;;24.80;100799.00;;;;2078666;28;20213;-54
2022/07/24 03:37:21;;;;;;;3.40;3.10;;;;;24.80;100792.00;;;;2077858;28;20233;-53
2022/07/24 03:38:21;;;;;;;3.27;3.07;;;;;24.80;100795.00;;;;2078560;28;20209;-53
2022/07/24 03:39:22;;;;;;;3.67;3.37;;;;;24.80;100790.00;;;;2083131;28;20291;-54
2022/07/24 03:40:22;;;;;;;3.60;3.37;;;;;24.80;100799.00;;;;2086888;28;20215;-53
2022/07/24 03:41:22;;;;;;;3.13;2.93;;;;;24.80;100797.00;;;;2086861;28;20670;-53
2022/07/24 03:42:23;;;;;;;3.00;2.80;;;;;24.80;100797.00;;;;2086930;28;20212;-53
2022/07/24 03:43:23;;;;;;;3.80;3.20;;;;;24.80;100796.00;;;;2078644;28;20221;-53
2022/07/24 03:44:23;;;;;;;3.40;3.20;;;;;24.80;100797.00;;;;2078507;28;20229;-54
2022/07/24 03:45:23;;;;;;;3.70;3.40;;;;;24.80;100798.00;;;;2078541;28;20376;-54
2022/07/24 03:46:24;;;;;;;3.10;2.90;;;;;24.80;100792.00;;;;2078119;28;20673;-53
2022/07/24 03:47:24;;;;;;;3.40;3.10;;;;;24.80;100797.00;;;;2076664;28;20618;-58
2022/07/24 03:48:24;;;;;;;3.10;2.90;;;;;24.80;100799.00;;;;2078420;28;20220;-58
2022/07/24 03:49:25;;;;;;;3.77;3.47;;;;;24.80;100593.00;;;;2078446;28;20205;-55
2022/07/24 03:50:25;;;;;;;3.60;3.40;;;;;24.80;100803.00;;;;2081783;28;20219;-54
2022/07/24 03:51:25;;;;;;;4.13;3.57;;;;;24.80;100797.00;;;;2086743;28;20669;-55
2022/07/24 03:52:26;;;;;;;3.20;3.00;;;;;24.80;100800.00;;;;2086926;28;20236;-55
2022/07/24 03:53:26;;;;;;;3.40;3.20;;;;;24.80;100793.00;;;;2084656;28;20216;-54
2022/07/24 03:54:26;;;;;;;3.50;3.30;;;;;24.80;100797.00;;;;2078344;28;20213;-54
2022/07/24 03:55:27;;;;;;;3.37;3.17;;;;;24.80;100798.00;;;;2078506;28;20210;-54
2022/07/24 03:56:28;;;;;;;3.03;2.83;;;;;24.80;100795.00;;;;2078605;28;20205;-54
2022/07/24 03:57:28;;;;;;;3.00;2.80;;;;;24.80;100797.00;;;;2077584;28;20209;-55
2022/07/24 03:58:28;;;;;;;3.03;2.83;;;;;24.80;100799.00;;;;2078250;28;20456;-54
2022/07/24 03:59:29;;;;;;;3.30;3.10;;;;;24.80;100807.00;;;;2078312;28;20227;-53
2022/07/24 04:00:29;;;;;;;3.13;2.83;;;;;24.70;100802.00;;;;2078670;28;20213;-54
2022/07/24 04:01:29;;;;;;;3.37;3.07;;;;;24.80;100802.00;;;;2078737;28;20582;-54
2022/07/24 04:02:30;;;;;;;4.33;3.00;;;;;24.80;100806.00;;;;2078126;28;20220;-53
2022/07/24 04:03:30;;;;;;;3.33;3.13;;;;;24.80;100803.00;;;;2078675;28;20214;-53
2022/07/24 04:04:30;;;;;;;3.00;2.80;;;;;24.80;100811.00;;;;2078481;28;20229;-54
2022/07/24 04:05:31;;;;;;;3.43;2.70;;;;;24.80;100811.00;;;;2078472;28;20274;-53
2022/07/24 04:06:32;;;;;;;3.30;3.10;;;;;24.80;100817.00;;;;2078524;28;20206;-54
2022/07/24 04:07:32;;;;;;;3.38;3.13;;;;;24.80;100813.00;;;;2076901;28;20209;-53
2022/07/24 04:08:33;;;;;;;3.60;3.30;;;;;24.80;100797.00;;;;2077543;28;20220;-53
2022/07/24 04:09:33;;;;;;;3.83;3.10;;;;;24.80;100808.00;;;;2078693;28;20206;-54
2022/07/24 04:10:34;;;;;;;3.33;3.13;;;;;24.80;100812.00;;;;2077826;28;20308;-53
2022/07/24 04:11:34;;;;;;;3.30;3.00;;;;;24.80;100829.00;;;;2077609;28;20213;-55
2022/07/24 04:12:34;;;;;;;3.00;2.80;;;;;24.80;100816.00;;;;2082439;28;20212;-54
2022/07/24 04:13:35;;;;;;;3.30;3.10;;;;;24.80;100813.00;;;;2086820;28;20217;-53
2022/07/24 04:14:35;;;;;;;2.93;2.73;;;;;24.80;100810.00;;;;2086470;28;20284;-53
2022/07/24 04:15:36;;;;;;;3.00;2.80;;;;;24.80;100814.00;;;;2086771;28;20239;-53
2022/07/24 04:16:36;;;;;;;3.00;2.80;;;;;24.80;100808.00;;;;2086759;28;20575;-54
2022/07/24 04:17:40;;;;;;;3.30;3.00;;;;;24.80;100817.00;;;;2085836;28;20201;-54
2022/07/24 04:18:40;;;;;;;3.50;3.20;;;;;24.80;100799.00;;;;2086703;28;20723;-53
2022/07/24 04:19:41;;;;;;;3.70;3.40;;;;;24.80;100813.00;;;;2086191;28;20303;-53
2022/07/24 04:20:41;;;;;;;2.80;2.60;;;;;24.80;100800.00;;;;2086042;28;20220;-53
2022/07/24 04:21:41;;;;;;;3.23;2.93;;;;;24.80;100808.00;;;;2081126;28;20213;-53
2022/07/24 04:22:41;;;;;;;3.10;2.90;;;;;24.80;100797.00;;;;2078446;28;20213;-53
2022/07/24 04:23:42;;;;;;;3.83;3.00;;;;;24.80;100799.00;;;;2077160;28;20761;-54
2022/07/24 04:24:42;;;;;;;3.20;2.90;;;;;24.80;100802.00;;;;2085589;28;20733;-54
2022/07/24 04:25:42;;;;;;;3.53;3.00;;;;;24.80;100797.00;;;;2080087;28;20276;-53
2022/07/24 04:26:43;;;;;;;3.10;2.90;;;;;24.80;100808.00;;;;2078265;28;20217;-54
2022/07/24 04:27:43;;;;;;;2.93;2.73;;;;;24.80;100799.00;;;;2077471;28;20857;-53
2022/07/24 04:28:44;;;;;;;7.93;3.30;;;;;24.80;100797.00;;;;2085572;28;20288;-53
2022/07/24 04:29:44;;;;;;;3.20;3.00;;;;;24.80;100798.00;;;;2086511;28;20212;-54
2022/07/24 04:30:44;;;;;;;4.00;3.20;;;;;24.80;100801.00;;;;2086604;28;20205;-53
2022/07/24 04:31:45;;;;;;;2.90;2.70;;;;;24.80;100796.00;;;;2086640;28;20215;-53
2022/07/24 04:32:45;;;;;;;3.27;3.07;;;;;24.80;100768.00;;;;2086928;28;20938;-53
2022/07/24 04:33:46;;;;;;;2.90;2.70;;;;;24.80;100809.00;;;;2088109;28;20258;-54
2022/07/24 04:34:46;;;;;;;3.17;2.97;;;;;24.80;100798.00;;;;2086898;28;20783;-54
2022/07/24 04:35:46;;;;;;;3.47;3.20;;;;;24.80;100807.00;;;;2080067;28;20701;-53
2022/07/24 04:36:47;;;;;;;2.73;2.53;;;;;24.80;100805.00;;;;2079604;28;20301;-54
2022/07/24 04:37:47;;;;;;;3.20;2.87;;;;;24.80;100801.00;;;;2078828;28;20821;-54
2022/07/24 04:38:48;;;;;;;3.70;3.40;;;;;24.80;100802.00;;;;2080137;28;20213;-54
2022/07/24 04:39:48;;;;;;;3.43;3.17;;;;;24.80;100800.00;;;;2079380;28;20789;-54
2022/07/24 04:40:48;;;;;;;2.90;2.70;;;;;24.80;100798.00;;;;2079411;28;20858;-54
2022/07/24 04:41:49;;;;;;;3.20;3.00;;;;;24.80;100798.00;;;;2079960;28;20233;-54
2022/07/24 04:42:49;;;;;;;3.00;2.80;;;;;24.80;100797.00;;;;2080003;28;20212;-53
2022/07/24 04:43:49;;;;;;;3.20;3.00;;;;;24.80;100790.00;;;;2080104;28;20214;-54
2022/07/24 04:44:50;;;;;;;3.20;2.90;;;;;24.80;100795.00;;;;2082597;28;20214;-54
2022/07/24 04:45:50;;;;;;;3.03;2.83;;;;;24.80;100798.00;;;;2084754;28;20251;-53
2022/07/24 04:46:50;;;;;;;2.93;2.73;;;;;24.80;100797.00;;;;2095719;28;20242;-54
2022/07/24 04:47:51;;;;;;;3.00;2.80;;;;;24.80;100799.00;;;;2088622;28;20209;-53
2022/07/24 04:48:51;;;;;;;3.90;3.60;;;;;24.80;100800.00;;;;2087183;28;20213;-53
2022/07/24 04:49:51;;;;;;;3.40;3.10;;;;;24.80;100796.00;;;;2080063;28;20209;-53
2022/07/24 04:50:52;;;;;;;2.83;2.63;;;;;24.80;100796.00;;;;2079942;28;20694;-54
2022/07/24 04:51:52;;;;;;;3.33;3.13;;;;;24.80;100795.00;;;;2079843;28;20224;-53
2022/07/24 04:52:53;;;;;;;3.20;3.00;;;;;24.80;100793.00;;;;2079941;28;21087;-53
2022/07/24 04:53:53;;;;;;;2.80;2.60;;;;;24.80;100794.00;;;;2079983;28;21891;-54
2022/07/24 04:54:53;;;;;;;3.00;2.80;;;;;24.80;100796.00;;;;2079757;28;20689;-54
2022/07/24 04:55:54;;;;;;;3.13;2.93;;;;;24.80;100801.00;;;;2079935;28;20725;-53
2022/07/24 04:56:54;;;;;;;3.07;2.87;;;;;24.80;100797.00;;;;2079959;28;20686;-54
2022/07/24 04:57:54;;;;;;;2.80;2.60;;;;;24.80;100800.00;;;;2078933;28;20237;-54
2022/07/24 04:58:55;;;;;;;3.20;3.00;;;;;24.80;100834.00;;;;2087300;28;20208;-53